createdAt,value
2024-02-08T00:01:18.520Z,0.40
2024-02-08T00:03:46.872Z,0.40
2024-02-08T00:06:16.605Z,0.40
2024-02-08T00:08:44.979Z,0.40
2024-02-08T00:11:13.412Z,0.40
2024-02-08T00:13:41.773Z,0.40
2024-02-08T00:16:12.785Z,0.40
2024-02-08T00:18:41.087Z,0.30
2024-02-08T00:21:10.972Z,0.40
2024-02-08T00:23:40.738Z,0.30
2024-02-08T00:26:09.124Z,0.30
2024-02-08T00:28:37.508Z,0.40
2024-02-08T00:31:06.757Z,0.40
2024-02-08T00:33:35.898Z,0.40
2024-02-08T00:36:04.268Z,0.50
2024-02-08T00:38:32.720Z,0.60
2024-02-08T00:41:02.510Z,0.60
2024-02-08T00:43:30.897Z,0.70
2024-02-08T00:45:59.160Z,0.70
2024-02-08T00:48:27.436Z,0.70
2024-02-08T00:50:56.193Z,0.70
2024-02-08T00:53:24.575Z,0.60
2024-02-08T00:55:53.219Z,0.60
2024-02-08T00:58:23.223Z,0.60
2024-02-08T01:00:54.636Z,0.50
2024-02-08T01:03:26.120Z,0.50
2024-02-08T01:05:54.956Z,0.50
2024-02-08T01:08:23.996Z,0.50
2024-02-08T01:10:52.399Z,0.50
2024-02-08T01:13:23.188Z,0.50
2024-02-08T01:15:51.908Z,0.50
2024-02-08T01:18:21.786Z,0.60
2024-02-08T01:20:51.216Z,0.50
2024-02-08T01:23:19.810Z,0.60
2024-02-08T01:25:48.750Z,0.60
2024-02-08T01:28:17.076Z,0.60
2024-02-08T01:30:47.381Z,0.60
2024-02-08T01:33:15.754Z,0.60
2024-02-08T01:35:44.056Z,0.70
2024-02-08T01:38:14.868Z,0.70
2024-02-08T01:40:43.665Z,0.60
2024-02-08T01:43:12.299Z,0.40
2024-02-08T01:45:42.850Z,0.60
2024-02-08T01:48:17.427Z,0.50
2024-02-08T01:50:51.154Z,0.50
2024-02-08T01:53:29.353Z,0.50
2024-02-08T01:56:02.377Z,0.40
2024-02-08T01:58:33.208Z,0.40
2024-02-08T02:01:14.758Z,0.40
2024-02-08T02:03:44.676Z,0.30
2024-02-08T02:06:15.995Z,0.30
2024-02-08T02:08:53.565Z,0.30
2024-02-08T02:11:28.942Z,0.30
2024-02-08T02:13:59.767Z,0.30
2024-02-08T02:16:28.806Z,0.30
2024-02-08T02:18:58.551Z,0.30
2024-02-08T02:21:29.412Z,0.20
2024-02-08T02:23:57.928Z,0.20
2024-02-08T02:26:27.511Z,0.10
2024-02-08T02:28:56.388Z,0.00
2024-02-08T02:31:25.839Z,0.00
2024-02-08T02:33:55.337Z,0.00
2024-02-08T02:36:23.877Z,0.00
2024-02-08T02:38:53.833Z,-0.10
2024-02-08T02:41:26.863Z,-0.10
2024-02-08T02:43:55.505Z,-0.20
2024-02-08T02:46:24.070Z,-0.10
2024-02-08T02:48:52.751Z,-0.20
2024-02-08T02:51:21.283Z,-0.20
2024-02-08T02:53:49.583Z,-0.20
2024-02-08T02:56:20.864Z,-0.20
2024-02-08T02:58:49.348Z,-0.20
2024-02-08T03:01:17.893Z,-0.20
2024-02-08T03:03:48.697Z,-0.20
2024-02-08T03:06:17.504Z,-0.10
2024-02-08T03:08:47.090Z,0.00
2024-02-08T03:11:16.340Z,0.00
2024-02-08T03:13:48.020Z,0.00
2024-02-08T03:16:18.804Z,0.00
2024-02-08T03:18:50.560Z,0.10
2024-02-08T03:21:23.385Z,0.10
2024-02-08T03:23:58.022Z,0.00
2024-02-08T03:26:27.443Z,0.00
2024-02-08T03:28:57.257Z,0.00
2024-02-08T03:31:27.648Z,0.00
2024-02-08T03:33:56.214Z,0.00
2024-02-08T03:36:25.255Z,0.00
2024-02-08T03:38:54.834Z,0.00
2024-02-08T03:41:27.395Z,0.00
2024-02-08T03:43:58.749Z,0.00
2024-02-08T03:46:28.080Z,0.10
2024-02-08T03:48:57.727Z,0.00
2024-02-08T03:51:26.113Z,-0.10
2024-02-08T03:53:54.369Z,0.00
2024-02-08T03:56:27.982Z,0.00
2024-02-08T03:59:01.151Z,0.00
2024-02-08T04:01:30.043Z,-0.10
2024-02-08T04:04:13.302Z,-0.10
2024-02-08T04:07:01.619Z,-0.10
2024-02-08T04:09:40.524Z,-0.20
2024-02-08T04:12:26.645Z,-0.20
2024-02-08T04:15:13.860Z,-0.30
2024-02-08T04:17:59.613Z,-0.30
2024-02-08T04:20:45.502Z,-0.30
2024-02-08T04:23:34.313Z,-0.30
2024-02-08T04:26:24.972Z,-0.40
2024-02-08T04:29:12.542Z,-0.50
2024-02-08T04:31:59.555Z,-0.40
2024-02-08T04:34:45.278Z,-0.40
2024-02-08T04:37:31.019Z,-0.40
2024-02-08T04:40:16.733Z,-0.40
2024-02-08T04:43:02.359Z,-0.30
2024-02-08T04:45:48.323Z,-0.40
2024-02-08T04:48:35.564Z,-0.40
2024-02-08T04:51:21.025Z,-0.50
2024-02-08T04:53:49.350Z,-0.50
2024-02-08T04:56:19.960Z,-0.50
2024-02-08T05:01:27.490Z,-0.50
2024-02-08T05:03:59.451Z,-0.60
2024-02-08T05:06:28.298Z,-0.50
2024-02-08T05:09:00.905Z,-0.60
2024-02-08T05:11:31.286Z,-0.60
2024-02-08T05:14:03.066Z,-0.60
2024-02-08T05:16:33.872Z,-0.60
2024-02-08T05:19:05.410Z,-0.60
2024-02-08T05:21:33.941Z,-0.50
2024-02-08T05:24:02.828Z,-0.70
2024-02-08T05:26:33.853Z,-0.60
2024-02-08T05:29:02.368Z,-0.60
2024-02-08T05:31:31.463Z,-0.60
2024-02-08T05:34:00.644Z,-0.60
2024-02-08T05:36:31.141Z,-0.60
2024-02-08T05:38:59.484Z,-0.60
2024-02-08T05:41:34.401Z,-0.60
2024-02-08T05:44:06.574Z,-0.60
2024-02-08T05:46:40.246Z,-0.60
2024-02-08T05:49:15.015Z,-0.60
2024-02-08T05:51:51.192Z,-0.60
2024-02-08T05:54:21.952Z,-0.60
2024-02-08T05:56:53.552Z,-0.60
2024-02-08T05:59:22.625Z,-0.60
2024-02-08T06:01:55.775Z,-0.60
2024-02-08T06:04:26.022Z,-0.60
2024-02-08T06:07:02.684Z,-0.60
2024-02-08T06:09:50.289Z,-0.60
2024-02-08T06:12:29.499Z,-0.60
2024-02-08T06:15:00.763Z,-0.50
2024-02-08T06:17:33.645Z,-0.50
2024-02-08T06:20:10.261Z,-0.60
2024-02-08T06:22:44.735Z,-0.50
2024-02-08T06:25:29.275Z,-0.40
2024-02-08T06:27:59.546Z,-0.50
2024-02-08T06:30:32.850Z,-0.50
2024-02-08T06:33:09.853Z,-0.40
2024-02-08T06:35:41.146Z,-0.50
2024-02-08T06:38:15.222Z,-0.50
2024-02-08T06:40:52.600Z,-0.50
2024-02-08T06:43:46.802Z,-0.40
2024-02-08T06:46:19.711Z,-0.40
2024-02-08T06:49:10.128Z,-0.50
2024-02-08T06:51:56.228Z,-0.40
2024-02-08T06:54:43.265Z,-0.40
2024-02-08T06:57:28.967Z,-0.40
2024-02-08T07:00:14.754Z,-0.40
2024-02-08T07:03:00.318Z,-0.30
2024-02-08T07:05:46.049Z,-0.20
2024-02-08T07:08:31.864Z,-0.20
2024-02-08T07:11:18.952Z,-0.30
2024-02-08T07:14:04.727Z,-0.30
2024-02-08T07:16:52.576Z,-0.30
2024-02-08T07:19:38.200Z,-0.20
2024-02-08T07:22:24.129Z,-0.10
2024-02-08T07:25:09.733Z,-0.10
2024-02-08T07:27:57.228Z,-0.10
2024-02-08T07:30:43.277Z,0.00
2024-02-08T07:33:28.774Z,0.10
2024-02-08T07:36:14.489Z,0.10
2024-02-08T07:39:11.562Z,0.20
2024-02-08T07:41:41.717Z,0.30
2024-02-08T07:44:11.964Z,0.40
2024-02-08T07:46:43.890Z,0.30
2024-02-08T07:49:16.486Z,0.30
2024-02-08T07:51:51.637Z,0.30
2024-02-08T07:54:23.117Z,0.40
2024-02-08T07:56:55.170Z,0.50
2024-02-08T07:59:28.967Z,0.60
2024-02-08T08:01:59.151Z,0.60
2024-02-08T08:04:53.353Z,0.70
2024-02-08T08:07:25.762Z,0.70
2024-02-08T08:10:09.173Z,0.70
2024-02-08T08:12:38.892Z,0.70
2024-02-08T08:15:15.219Z,0.80
2024-02-08T08:17:44.792Z,0.80
2024-02-08T08:20:40.586Z,0.80
2024-02-08T08:23:09.685Z,0.90
2024-02-08T08:25:55.143Z,1.00
2024-02-08T08:28:42.362Z,1.10
2024-02-08T08:31:29.848Z,1.10
2024-02-08T08:34:01.769Z,1.10
2024-02-08T08:36:30.070Z,1.10
2024-02-08T08:39:21.883Z,1.10
2024-02-08T08:41:49.658Z,1.10
2024-02-08T08:44:20.154Z,1.20
2024-02-08T08:46:54.020Z,1.20
2024-02-08T08:49:23.856Z,1.20
2024-02-08T08:52:00.545Z,1.20
2024-02-08T08:54:31.427Z,1.20
2024-02-08T08:56:59.828Z,1.20
2024-02-08T08:59:30.722Z,1.30
2024-02-08T09:02:02.192Z,1.40
2024-02-08T09:04:37.716Z,1.50
2024-02-08T09:07:12.720Z,1.60
2024-02-08T09:10:02.771Z,1.60
2024-02-08T09:12:38.288Z,1.70
2024-02-08T09:15:28.263Z,1.70
2024-02-08T09:18:10.081Z,1.70
2024-02-08T09:20:39.545Z,1.80
2024-02-08T09:23:15.501Z,1.80
2024-02-08T09:25:46.440Z,1.90
2024-02-08T09:28:27.488Z,1.80
2024-02-08T09:30:58.719Z,1.90
2024-02-08T09:33:42.844Z,1.90
2024-02-08T09:36:15.136Z,2.00
2024-02-08T09:38:47.913Z,2.00
2024-02-08T09:41:25.467Z,1.90
2024-02-08T09:43:59.010Z,2.10
2024-02-08T09:46:50.756Z,2.10
2024-02-08T09:49:23.647Z,2.20
2024-02-08T09:51:55.972Z,2.20
2024-02-08T09:54:33.741Z,2.40
2024-02-08T09:57:23.100Z,2.20
2024-02-08T10:00:07.993Z,2.20
2024-02-08T10:02:55.836Z,2.40
2024-02-08T10:05:45.516Z,2.30
2024-02-08T10:08:28.630Z,2.40
2024-02-08T10:11:12.938Z,2.60
2024-02-08T10:13:55.133Z,2.50
2024-02-08T10:16:32.321Z,2.50
2024-02-08T10:19:05.776Z,2.70
2024-02-08T10:21:38.006Z,2.60
2024-02-08T10:24:27.123Z,2.50
2024-02-08T10:27:00.263Z,2.50
2024-02-08T10:29:33.951Z,2.40
2024-02-08T10:32:02.728Z,2.40
2024-02-08T10:34:42.019Z,2.50
2024-02-08T10:37:37.093Z,2.40
2024-02-08T10:40:27.475Z,2.50
2024-02-08T10:43:00.418Z,2.50
2024-02-08T10:45:33.847Z,2.40
2024-02-08T10:48:04.948Z,2.40
2024-02-08T10:50:36.077Z,2.40
2024-02-08T10:53:17.496Z,2.20
2024-02-08T10:55:53.922Z,2.30
2024-02-08T10:58:29.304Z,2.30
2024-02-08T11:01:14.657Z,2.20
2024-02-08T11:03:54.945Z,2.30
2024-02-08T11:06:31.044Z,2.30
2024-02-08T11:09:19.797Z,2.40
2024-02-08T11:12:00.757Z,2.40
2024-02-08T11:14:33.953Z,2.30
2024-02-08T11:17:06.432Z,2.40
2024-02-08T11:19:41.119Z,2.50
2024-02-08T11:22:36.447Z,2.50
2024-02-08T11:25:34.997Z,2.40
2024-02-08T11:28:22.709Z,2.50
2024-02-08T11:30:55.566Z,2.50
2024-02-08T11:33:33.308Z,2.50
2024-02-08T11:36:14.613Z,2.70
2024-02-08T11:38:48.397Z,2.60
2024-02-08T11:41:21.870Z,2.50
2024-02-08T11:44:04.806Z,2.50
2024-02-08T11:46:39.735Z,2.40
2024-02-08T11:49:16.475Z,2.40
2024-02-08T11:51:47.127Z,2.50
2024-02-08T11:54:29.004Z,2.40
2024-02-08T11:57:00.028Z,2.30
2024-02-08T11:59:28.584Z,2.50
2024-02-08T12:02:00.060Z,2.40
2024-02-08T12:04:29.912Z,2.50
2024-02-08T12:07:04.396Z,2.60
2024-02-08T12:09:33.732Z,2.60
2024-02-08T12:12:05.724Z,2.50
2024-02-08T12:14:34.160Z,2.50
2024-02-08T12:17:03.574Z,2.70
2024-02-08T12:19:32.569Z,2.60
2024-02-08T12:22:05.602Z,2.40
2024-02-08T12:24:36.589Z,2.60
2024-02-08T12:27:16.389Z,2.40
2024-02-08T12:29:51.989Z,2.30
2024-02-08T12:32:21.196Z,2.30
2024-02-08T12:34:51.050Z,2.40
2024-02-08T12:37:21.206Z,2.40
2024-02-08T12:39:51.059Z,2.50
2024-02-08T12:42:25.013Z,2.50
2024-02-08T12:44:53.624Z,2.50
2024-02-08T12:47:24.812Z,2.40
2024-02-08T12:49:54.957Z,2.40
2024-02-08T12:52:24.164Z,2.40
2024-02-08T12:54:56.015Z,2.20
2024-02-08T12:57:27.111Z,2.10
2024-02-08T13:00:03.775Z,2.00
2024-02-08T13:02:35.132Z,1.90
2024-02-08T13:05:05.120Z,1.90
2024-02-08T13:07:38.762Z,1.80
2024-02-08T13:10:16.193Z,1.70
2024-02-08T13:12:47.331Z,1.70
2024-02-08T13:15:23.590Z,1.60
2024-02-08T13:17:53.151Z,1.60
2024-02-08T13:20:25.108Z,1.60
2024-02-08T13:22:56.147Z,1.50
2024-02-08T13:25:29.817Z,1.40
2024-02-08T13:28:00.467Z,1.50
2024-02-08T13:30:31.303Z,1.30
2024-02-08T13:33:00.441Z,1.30
2024-02-08T13:35:30.354Z,1.20
2024-02-08T13:38:00.992Z,1.10
2024-02-08T13:40:29.519Z,1.10
2024-02-08T13:43:00.091Z,1.10
2024-02-08T13:45:33.359Z,1.00
2024-02-08T13:48:04.947Z,1.10
2024-02-08T13:50:34.944Z,1.10
2024-02-08T13:53:05.118Z,1.10
2024-02-08T13:58:08.912Z,1.20
2024-02-08T14:00:37.837Z,1.30
2024-02-08T14:03:10.046Z,1.30
2024-02-08T14:05:41.083Z,1.40
2024-02-08T14:08:18.880Z,1.40
2024-02-08T14:10:48.874Z,1.40
2024-02-08T14:13:30.873Z,1.40
2024-02-08T14:16:07.169Z,1.50
2024-02-08T14:18:39.947Z,1.50
2024-02-08T14:21:11.880Z,1.60
2024-02-08T14:23:42.685Z,1.50
2024-02-08T14:26:31.631Z,1.40
2024-02-08T14:29:02.116Z,1.50
2024-02-08T14:31:30.552Z,1.40
2024-02-08T14:33:58.977Z,1.30
2024-02-08T14:36:28.582Z,1.20
2024-02-08T14:38:57.323Z,1.20
2024-02-08T14:41:34.878Z,1.20
2024-02-08T14:44:10.369Z,1.20
2024-02-08T14:46:42.018Z,1.10
2024-02-08T14:49:28.080Z,1.10
2024-02-08T14:52:02.001Z,1.10
2024-02-08T14:54:30.532Z,1.10
2024-02-08T14:57:11.700Z,1.00
2024-02-08T14:59:46.802Z,0.80
2024-02-08T15:02:14.963Z,0.80
2024-02-08T15:04:47.187Z,0.70
2024-02-08T15:07:29.899Z,0.70
2024-02-08T15:09:59.370Z,0.60
2024-02-08T15:12:32.367Z,0.60
2024-02-08T15:15:06.358Z,0.60
2024-02-08T15:17:44.488Z,0.60
2024-02-08T15:20:31.193Z,0.60
2024-02-08T15:23:12.007Z,0.50
2024-02-08T15:25:45.407Z,0.50
2024-02-08T15:28:38.261Z,0.50
2024-02-08T15:31:37.979Z,0.30
2024-02-08T15:34:22.167Z,0.30
2024-02-08T15:36:52.536Z,0.50
2024-02-08T15:39:28.502Z,0.30
2024-02-08T15:42:02.955Z,0.20
2024-02-08T15:44:43.906Z,0.30
2024-02-08T15:47:17.226Z,0.20
2024-02-08T15:49:46.091Z,0.20
2024-02-08T15:52:17.395Z,0.20
2024-02-08T15:54:52.289Z,0.20
2024-02-08T15:57:24.486Z,0.10
2024-02-08T15:59:58.616Z,0.10
2024-02-08T16:02:27.948Z,0.10
2024-02-08T16:05:13.487Z,0.10
2024-02-08T16:07:44.275Z,0.10
2024-02-08T16:10:25.649Z,0.10
2024-02-08T16:13:06.736Z,0.10
2024-02-08T16:15:51.256Z,0.10
2024-02-08T16:18:27.138Z,0.10
2024-02-08T16:20:56.878Z,0.00
2024-02-08T16:23:28.479Z,0.10
2024-02-08T16:26:07.805Z,0.10
2024-02-08T16:28:46.892Z,0.10
2024-02-08T16:31:26.546Z,0.10
2024-02-08T16:34:09.540Z,0.10
2024-02-08T16:36:46.833Z,0.10
2024-02-08T16:39:31.518Z,0.10
2024-02-08T16:42:02.366Z,0.30
2024-02-08T16:44:39.700Z,0.20
2024-02-08T16:47:11.884Z,0.10
2024-02-08T16:49:43.880Z,0.10
2024-02-08T16:52:20.810Z,0.10
2024-02-08T16:55:01.613Z,0.10
2024-02-08T16:57:32.934Z,0.00
2024-02-08T17:00:22.622Z,0.00
2024-02-08T17:03:06.015Z,0.00
2024-02-08T17:05:54.428Z,0.00
2024-02-08T17:08:23.580Z,0.00
2024-02-08T17:10:58.550Z,0.00
2024-02-08T17:13:46.274Z,-0.10
2024-02-08T17:16:36.841Z,0.00
2024-02-08T17:19:31.324Z,0.00
2024-02-08T17:22:40.751Z,0.00
2024-02-08T17:25:26.639Z,0.00
2024-02-08T17:28:08.032Z,0.00
2024-02-08T17:31:05.917Z,0.00
2024-02-08T17:33:48.310Z,0.00
2024-02-08T17:36:17.064Z,0.00
2024-02-08T17:38:46.921Z,-0.10
2024-02-08T17:41:20.417Z,-0.10
2024-02-08T17:43:56.724Z,-0.10
2024-02-08T17:46:25.981Z,0.00
2024-02-08T17:48:56.779Z,0.00
2024-02-08T17:51:38.874Z,0.00
2024-02-08T17:54:22.772Z,0.00
2024-02-08T17:56:52.380Z,0.00
2024-02-08T17:59:20.830Z,0.10
2024-02-08T18:01:57.267Z,0.00
2024-02-08T18:04:29.272Z,0.00
2024-02-08T18:07:00.205Z,0.00
2024-02-08T18:09:34.289Z,0.00
2024-02-08T18:12:13.977Z,0.10
2024-02-08T18:14:43.451Z,0.10
2024-02-08T18:17:20.444Z,0.10
2024-02-08T18:19:50.394Z,0.00
2024-02-08T18:22:22.916Z,0.00
2024-02-08T18:24:51.701Z,0.00
2024-02-08T18:27:23.760Z,0.10
2024-02-08T18:29:52.689Z,0.10
2024-02-08T18:32:21.141Z,0.10
2024-02-08T18:34:51.314Z,0.10
2024-02-08T18:37:26.532Z,0.00
2024-02-08T18:39:57.582Z,0.00
2024-02-08T18:42:28.832Z,0.10
2024-02-08T18:44:58.134Z,0.10
2024-02-08T18:47:30.228Z,0.10
2024-02-08T18:50:00.685Z,0.10
2024-02-08T18:52:32.191Z,0.00
2024-02-08T18:55:10.488Z,0.00
2024-02-08T18:57:38.998Z,0.00
2024-02-08T19:00:14.886Z,0.00
2024-02-08T19:02:44.025Z,0.00
2024-02-08T19:05:17.183Z,0.00
2024-02-08T19:07:47.750Z,0.00
2024-02-08T19:10:17.546Z,0.10
2024-02-08T19:12:48.293Z,0.10
2024-02-08T19:15:23.678Z,0.00
2024-02-08T19:18:00.248Z,0.10
2024-02-08T19:20:34.896Z,0.10
2024-02-08T19:23:06.842Z,0.10
2024-02-08T19:25:37.605Z,0.10
2024-02-08T19:28:08.015Z,0.10
2024-02-08T19:30:36.616Z,0.10
2024-02-08T19:33:06.730Z,0.10
2024-02-08T19:35:37.676Z,0.10
2024-02-08T19:38:06.444Z,0.10
2024-02-08T19:40:36.373Z,0.10
2024-02-08T19:43:06.472Z,0.10
2024-02-08T19:45:34.825Z,0.10
2024-02-08T19:48:04.266Z,0.10
2024-02-08T19:50:36.513Z,0.10
2024-02-08T19:53:07.561Z,0.10
2024-02-08T19:55:40.230Z,0.10
2024-02-08T19:58:09.741Z,0.20
2024-02-08T20:00:39.286Z,0.20
2024-02-08T20:03:17.665Z,0.20
2024-02-08T20:05:48.323Z,0.10
2024-02-08T20:08:17.772Z,0.10
2024-02-08T20:10:48.102Z,0.20
2024-02-08T20:13:19.436Z,0.10
2024-02-08T20:15:49.339Z,0.10
2024-02-08T20:18:19.797Z,0.10
2024-02-08T20:20:51.676Z,0.20
2024-02-08T20:23:33.671Z,0.30
2024-02-08T20:26:09.734Z,0.20
2024-02-08T20:28:38.465Z,0.20
2024-02-08T20:31:18.134Z,0.20
2024-02-08T20:33:46.657Z,0.20
2024-02-08T20:36:17.183Z,0.20
2024-02-08T20:38:45.626Z,0.20
2024-02-08T20:41:16.145Z,0.20
2024-02-08T20:43:49.869Z,0.10
2024-02-08T20:46:18.669Z,0.10
2024-02-08T20:48:47.396Z,0.10
2024-02-08T20:51:17.199Z,0.20
2024-02-08T20:53:45.715Z,0.10
2024-02-08T20:56:24.019Z,0.20
2024-02-08T20:58:52.554Z,0.20
2024-02-08T21:01:21.642Z,0.10
2024-02-08T21:03:51.531Z,0.10
2024-02-08T21:06:23.538Z,0.10
2024-02-08T21:08:52.428Z,0.10
2024-02-08T21:11:22.561Z,0.20
2024-02-08T21:13:56.023Z,0.20
2024-02-08T21:16:24.526Z,0.20
2024-02-08T21:18:53.135Z,0.10
2024-02-08T21:21:21.562Z,0.20
2024-02-08T21:23:49.964Z,0.20
2024-02-08T21:26:19.853Z,0.10
2024-02-08T21:28:52.545Z,0.10
2024-02-08T21:31:25.104Z,0.20
2024-02-08T21:33:54.165Z,0.20
2024-02-08T21:36:26.370Z,0.20
2024-02-08T21:38:54.996Z,0.20
2024-02-08T21:41:23.330Z,0.20
2024-02-08T21:43:52.934Z,0.20
2024-02-08T21:46:23.012Z,0.20
2024-02-08T21:48:51.799Z,0.20
2024-02-08T21:51:20.154Z,0.20
2024-02-08T21:53:49.714Z,0.20
2024-02-08T21:56:20.032Z,0.20
2024-02-08T21:58:48.838Z,0.20
2024-02-08T22:01:36.842Z,0.20
2024-02-08T22:04:06.324Z,0.10
2024-02-08T22:06:35.017Z,0.10
2024-02-08T22:09:10.871Z,0.10
2024-02-08T22:11:49.872Z,0.30
2024-02-08T22:14:18.733Z,0.10
2024-02-08T22:16:48.864Z,0.10
2024-02-08T22:19:17.450Z,0.20
2024-02-08T22:21:46.962Z,0.20
2024-02-08T22:24:15.739Z,0.20
2024-02-08T22:26:49.105Z,0.10
2024-02-08T22:29:17.872Z,0.20
2024-02-08T22:31:47.936Z,0.20
2024-02-08T22:34:17.891Z,0.20
2024-02-08T22:36:46.543Z,0.10
2024-02-08T22:39:17.542Z,0.40
2024-02-08T22:41:49.273Z,0.30
2024-02-08T22:44:18.170Z,0.30
2024-02-08T22:46:46.861Z,0.30
2024-02-08T22:49:15.801Z,0.30
2024-02-08T22:51:48.744Z,0.20
2024-02-08T22:54:18.565Z,0.20
2024-02-08T22:56:51.177Z,0.30
2024-02-08T22:59:21.781Z,0.30
2024-02-08T23:01:54.919Z,0.40
2024-02-08T23:04:24.453Z,0.40
2024-02-08T23:06:54.471Z,0.40
2024-02-08T23:09:22.913Z,0.40
2024-02-08T23:11:51.853Z,0.50
2024-02-08T23:14:22.690Z,0.50
2024-02-08T23:16:53.062Z,0.50
2024-02-08T23:19:22.296Z,0.50
2024-02-08T23:21:53.855Z,0.50
2024-02-08T23:24:25.117Z,0.50
2024-02-08T23:26:54.193Z,0.60
2024-02-08T23:29:23.800Z,0.40
2024-02-08T23:31:52.925Z,0.40
2024-02-08T23:34:21.608Z,0.40
2024-02-08T23:36:56.033Z,0.50
2024-02-08T23:39:29.298Z,0.50
2024-02-08T23:41:58.790Z,0.50
2024-02-08T23:44:29.868Z,0.40
2024-02-08T23:46:58.380Z,0.40
2024-02-08T23:49:27.483Z,0.40
2024-02-08T23:51:57.061Z,0.40
2024-02-08T23:54:27.251Z,0.30
2024-02-08T23:56:56.567Z,0.40
2024-02-08T23:59:25.057Z,0.40
